sensor_id;sensor_type;location;lat;lon;timestamp;temperature;humidity
37678;DHT22;23517;50.390;8.616;2023-02-27T00:00:13;-1.00;38.10
37678;DHT22;23517;50.390;8.616;2023-02-27T00:02:42;-1.00;38.30
37678;DHT22;23517;50.390;8.616;2023-02-27T00:05:10;-1.00;38.40
37678;DHT22;23517;50.390;8.616;2023-02-27T00:07:37;-1.00;38.50
37678;DHT22;23517;50.390;8.616;2023-02-27T00:10:05;-1.00;38.50
37678;DHT22;23517;50.390;8.616;2023-02-27T00:12:33;-1.10;38.60
37678;DHT22;23517;50.390;8.616;2023-02-27T00:15:06;-1.10;38.70
37678;DHT22;23517;50.390;8.616;2023-02-27T00:17:34;-1.10;38.80
37678;DHT22;23517;50.390;8.616;2023-02-27T00:20:02;-1.10;39.00
37678;DHT22;23517;50.390;8.616;2023-02-27T00:22:32;-1.10;39.30
37678;DHT22;23517;50.390;8.616;2023-02-27T00:24:58;-1.20;39.30
37678;DHT22;23517;50.390;8.616;2023-02-27T00:27:27;-1.10;39.20
37678;DHT22;23517;50.390;8.616;2023-02-27T00:29:54;-1.20;39.50
37678;DHT22;23517;50.390;8.616;2023-02-27T00:32:21;-1.20;39.70
37678;DHT22;23517;50.390;8.616;2023-02-27T00:34:47;-1.30;40.10
37678;DHT22;23517;50.390;8.616;2023-02-27T00:37:14;-1.30;40.50
37678;DHT22;23517;50.390;8.616;2023-02-27T00:39:41;-1.40;40.70
37678;DHT22;23517;50.390;8.616;2023-02-27T00:42:07;-1.40;40.80
37678;DHT22;23517;50.390;8.616;2023-02-27T00:44:34;-1.40;40.80
37678;DHT22;23517;50.390;8.616;2023-02-27T00:47:01;-1.40;40.70
37678;DHT22;23517;50.390;8.616;2023-02-27T00:49:27;-1.40;41.00
37678;DHT22;23517;50.390;8.616;2023-02-27T00:51:54;-1.40;41.00
37678;DHT22;23517;50.390;8.616;2023-02-27T00:54:21;-1.40;41.00
37678;DHT22;23517;50.390;8.616;2023-02-27T00:56:47;-1.50;41.20
37678;DHT22;23517;50.390;8.616;2023-02-27T00:59:15;-1.50;41.70
37678;DHT22;23517;50.390;8.616;2023-02-27T01:01:42;-1.50;42.20
37678;DHT22;23517;50.390;8.616;2023-02-27T01:04:10;-1.50;42.30
37678;DHT22;23517;50.390;8.616;2023-02-27T01:06:37;-1.60;42.40
37678;DHT22;23517;50.390;8.616;2023-02-27T01:09:04;-1.60;42.50
37678;DHT22;23517;50.390;8.616;2023-02-27T01:11:33;-1.60;42.80
37678;DHT22;23517;50.390;8.616;2023-02-27T01:14:10;-1.70;43.20
37678;DHT22;23517;50.390;8.616;2023-02-27T01:16:36;-1.60;43.00
37678;DHT22;23517;50.390;8.616;2023-02-27T01:19:03;-1.60;43.20
37678;DHT22;23517;50.390;8.616;2023-02-27T01:21:30;-1.60;43.30
37678;DHT22;23517;50.390;8.616;2023-02-27T01:23:57;-1.70;43.70
37678;DHT22;23517;50.390;8.616;2023-02-27T01:26:23;-1.60;43.70
37678;DHT22;23517;50.390;8.616;2023-02-27T01:28:50;-1.70;43.80
37678;DHT22;23517;50.390;8.616;2023-02-27T01:31:17;-1.70;44.00
37678;DHT22;23517;50.390;8.616;2023-02-27T01:33:43;-1.70;43.70
37678;DHT22;23517;50.390;8.616;2023-02-27T01:36:10;-1.70;43.80
37678;DHT22;23517;50.390;8.616;2023-02-27T01:38:37;-1.70;44.00
37678;DHT22;23517;50.390;8.616;2023-02-27T01:41:03;-1.70;44.10
37678;DHT22;23517;50.390;8.616;2023-02-27T01:43:33;-1.70;44.10
37678;DHT22;23517;50.390;8.616;2023-02-27T01:46:00;-1.80;44.40
37678;DHT22;23517;50.390;8.616;2023-02-27T01:48:32;-1.80;44.70
37678;DHT22;23517;50.390;8.616;2023-02-27T01:51:10;-1.90;44.40
37678;DHT22;23517;50.390;8.616;2023-02-27T01:53:40;-1.90;44.60
37678;DHT22;23517;50.390;8.616;2023-02-27T01:56:28;-1.80;44.80
37678;DHT22;23517;50.390;8.616;2023-02-27T01:59:01;-1.80;44.30
37678;DHT22;23517;50.390;8.616;2023-02-27T02:01:34;-1.80;44.30
37678;DHT22;23517;50.390;8.616;2023-02-27T02:04:14;-1.90;44.40
37678;DHT22;23517;50.390;8.616;2023-02-27T02:06:49;-1.90;44.40
37678;DHT22;23517;50.390;8.616;2023-02-27T02:09:19;-1.90;44.80
37678;DHT22;23517;50.390;8.616;2023-02-27T02:11:47;-1.90;44.70
37678;DHT22;23517;50.390;8.616;2023-02-27T02:14:14;-1.90;44.20
37678;DHT22;23517;50.390;8.616;2023-02-27T02:25:47;-1.90;44.20
37678;DHT22;23517;50.390;8.616;2023-02-27T02:29:31;-1.90;44.00
37678;DHT22;23517;50.390;8.616;2023-02-27T02:38:57;-1.80;43.20
37678;DHT22;23517;50.390;8.616;2023-02-27T02:42:02;-1.80;43.30
37678;DHT22;23517;50.390;8.616;2023-02-27T02:45:02;-1.80;43.20
37678;DHT22;23517;50.390;8.616;2023-02-27T02:48:26;-1.70;43.00
37678;DHT22;23517;50.390;8.616;2023-02-27T02:51:19;-1.80;43.00
37678;DHT22;23517;50.390;8.616;2023-02-27T02:54:12;-1.80;43.20
37678;DHT22;23517;50.390;8.616;2023-02-27T02:57:06;-1.80;43.30
37678;DHT22;23517;50.390;8.616;2023-02-27T02:59:54;-1.80;43.40
37678;DHT22;23517;50.390;8.616;2023-02-27T03:02:29;-1.90;43.30
37678;DHT22;23517;50.390;8.616;2023-02-27T03:05:08;-1.90;43.60
37678;DHT22;23517;50.390;8.616;2023-02-27T03:07:42;-1.80;43.40
37678;DHT22;23517;50.390;8.616;2023-02-27T03:10:16;-1.90;43.10
37678;DHT22;23517;50.390;8.616;2023-02-27T03:13:02;-1.80;43.20
37678;DHT22;23517;50.390;8.616;2023-02-27T03:15:44;-1.90;43.60
37678;DHT22;23517;50.390;8.616;2023-02-27T03:18:21;-1.90;43.50
37678;DHT22;23517;50.390;8.616;2023-02-27T03:20:54;-1.90;43.20
37678;DHT22;23517;50.390;8.616;2023-02-27T03:23:29;-1.90;43.50
37678;DHT22;23517;50.390;8.616;2023-02-27T03:25:59;-2.00;43.40
37678;DHT22;23517;50.390;8.616;2023-02-27T03:28:36;-1.90;43.30
37678;DHT22;23517;50.390;8.616;2023-02-27T03:33:47;-1.90;42.90
37678;DHT22;23517;50.390;8.616;2023-02-27T03:39:30;-1.90;42.80
37678;DHT22;23517;50.390;8.616;2023-02-27T03:42:24;-1.90;42.60
37678;DHT22;23517;50.390;8.616;2023-02-27T03:45:18;-1.90;42.50
37678;DHT22;23517;50.390;8.616;2023-02-27T03:47:50;-1.90;42.60
37678;DHT22;23517;50.390;8.616;2023-02-27T03:50:17;-1.90;42.30
37678;DHT22;23517;50.390;8.616;2023-02-27T03:52:44;-1.90;42.30
37678;DHT22;23517;50.390;8.616;2023-02-27T03:55:20;-1.90;42.70
37678;DHT22;23517;50.390;8.616;2023-02-27T03:57:50;-1.90;42.70
37678;DHT22;23517;50.390;8.616;2023-02-27T04:00:20;-2.00;42.60
37678;DHT22;23517;50.390;8.616;2023-02-27T04:02:49;-2.00;42.50
37678;DHT22;23517;50.390;8.616;2023-02-27T04:05:18;-2.00;42.60
37678;DHT22;23517;50.390;8.616;2023-02-27T04:11:12;-2.10;43.10
37678;DHT22;23517;50.390;8.616;2023-02-27T04:14:14;-2.10;43.30
37678;DHT22;23517;50.390;8.616;2023-02-27T04:17:21;-2.10;43.50
37678;DHT22;23517;50.390;8.616;2023-02-27T04:20:15;-2.20;43.60
37678;DHT22;23517;50.390;8.616;2023-02-27T04:22:56;-2.20;43.50
37678;DHT22;23517;50.390;8.616;2023-02-27T04:25:52;-2.20;43.70
37678;DHT22;23517;50.390;8.616;2023-02-27T04:28:30;-2.20;43.70
37678;DHT22;23517;50.390;8.616;2023-02-27T04:31:20;-2.10;43.90
37678;DHT22;23517;50.390;8.616;2023-02-27T04:34:03;-2.10;43.90
37678;DHT22;23517;50.390;8.616;2023-02-27T04:36:41;-2.20;44.10
37678;DHT22;23517;50.390;8.616;2023-02-27T04:39:26;-2.10;44.30
37678;DHT22;23517;50.390;8.616;2023-02-27T04:42:01;-2.10;44.30
37678;DHT22;23517;50.390;8.616;2023-02-27T04:44:32;-2.10;44.20
37678;DHT22;23517;50.390;8.616;2023-02-27T04:47:02;-2.10;44.50
37678;DHT22;23517;50.390;8.616;2023-02-27T04:49:33;-2.20;44.40
37678;DHT22;23517;50.390;8.616;2023-02-27T04:52:15;-2.20;44.40
37678;DHT22;23517;50.390;8.616;2023-02-27T04:54:58;-2.20;44.50
37678;DHT22;23517;50.390;8.616;2023-02-27T04:57:38;-2.20;44.30
37678;DHT22;23517;50.390;8.616;2023-02-27T05:00:09;-2.20;44.90
37678;DHT22;23517;50.390;8.616;2023-02-27T05:02:50;-2.20;44.90
37678;DHT22;23517;50.390;8.616;2023-02-27T05:05:24;-2.30;45.00
37678;DHT22;23517;50.390;8.616;2023-02-27T05:10:52;-2.30;45.70
37678;DHT22;23517;50.390;8.616;2023-02-27T05:14:16;-2.30;46.00
37678;DHT22;23517;50.390;8.616;2023-02-27T05:16:53;-2.30;46.60
37678;DHT22;23517;50.390;8.616;2023-02-27T05:19:23;-2.30;47.00
37678;DHT22;23517;50.390;8.616;2023-02-27T05:21:57;-2.20;47.40
37678;DHT22;23517;50.390;8.616;2023-02-27T05:24:44;-2.20;47.60
37678;DHT22;23517;50.390;8.616;2023-02-27T05:30:23;-2.10;48.00
37678;DHT22;23517;50.390;8.616;2023-02-27T05:33:02;-2.10;48.30
37678;DHT22;23517;50.390;8.616;2023-02-27T05:36:14;-2.00;48.20
37678;DHT22;23517;50.390;8.616;2023-02-27T05:38:51;-2.00;48.20
37678;DHT22;23517;50.390;8.616;2023-02-27T05:41:30;-2.10;48.40
37678;DHT22;23517;50.390;8.616;2023-02-27T05:44:04;-2.20;48.60
37678;DHT22;23517;50.390;8.616;2023-02-27T05:46:40;-2.20;49.00
37678;DHT22;23517;50.390;8.616;2023-02-27T05:49:16;-2.20;49.30
37678;DHT22;23517;50.390;8.616;2023-02-27T05:51:50;-2.20;49.60
37678;DHT22;23517;50.390;8.616;2023-02-27T05:54:34;-2.20;49.80
37678;DHT22;23517;50.390;8.616;2023-02-27T05:57:13;-2.30;50.00
37678;DHT22;23517;50.390;8.616;2023-02-27T05:59:49;-2.30;50.20
37678;DHT22;23517;50.390;8.616;2023-02-27T06:02:20;-2.30;50.20
37678;DHT22;23517;50.390;8.616;2023-02-27T06:04:46;-2.30;50.50
37678;DHT22;23517;50.390;8.616;2023-02-27T06:07:14;-2.30;50.60
37678;DHT22;23517;50.390;8.616;2023-02-27T06:09:42;-2.30;50.60
37678;DHT22;23517;50.390;8.616;2023-02-27T06:12:09;-2.30;51.00
37678;DHT22;23517;50.390;8.616;2023-02-27T06:14:36;-2.30;51.10
37678;DHT22;23517;50.390;8.616;2023-02-27T06:17:03;-2.30;51.00
37678;DHT22;23517;50.390;8.616;2023-02-27T06:19:30;-2.20;51.10
37678;DHT22;23517;50.390;8.616;2023-02-27T06:21:56;-2.20;51.10
37678;DHT22;23517;50.390;8.616;2023-02-27T06:24:23;-2.20;50.80
37678;DHT22;23517;50.390;8.616;2023-02-27T06:26:50;-2.30;50.90
37678;DHT22;23517;50.390;8.616;2023-02-27T06:29:17;-2.20;51.10
37678;DHT22;23517;50.390;8.616;2023-02-27T06:31:44;-2.20;50.90
37678;DHT22;23517;50.390;8.616;2023-02-27T06:34:10;-2.30;51.00
37678;DHT22;23517;50.390;8.616;2023-02-27T06:36:37;-2.30;51.10
37678;DHT22;23517;50.390;8.616;2023-02-27T06:39:05;-2.30;51.30
37678;DHT22;23517;50.390;8.616;2023-02-27T06:41:32;-2.30;51.70
37678;DHT22;23517;50.390;8.616;2023-02-27T06:44:00;-2.30;51.70
37678;DHT22;23517;50.390;8.616;2023-02-27T06:46:27;-2.20;51.60
37678;DHT22;23517;50.390;8.616;2023-02-27T06:48:54;-2.20;51.50
37678;DHT22;23517;50.390;8.616;2023-02-27T06:51:21;-2.10;51.50
37678;DHT22;23517;50.390;8.616;2023-02-27T06:53:52;-2.10;51.30
37678;DHT22;23517;50.390;8.616;2023-02-27T06:56:18;-2.10;51.30
37678;DHT22;23517;50.390;8.616;2023-02-27T06:58:45;-2.00;51.00
37678;DHT22;23517;50.390;8.616;2023-02-27T07:01:16;-1.90;50.90
37678;DHT22;23517;50.390;8.616;2023-02-27T07:03:43;-1.90;51.00
37678;DHT22;23517;50.390;8.616;2023-02-27T07:06:10;-1.90;50.80
37678;DHT22;23517;50.390;8.616;2023-02-27T07:08:37;-1.90;50.70
37678;DHT22;23517;50.390;8.616;2023-02-27T07:11:34;-1.80;50.60
37678;DHT22;23517;50.390;8.616;2023-02-27T07:14:01;-1.70;50.40
37678;DHT22;23517;50.390;8.616;2023-02-27T07:16:27;-1.60;50.00
37678;DHT22;23517;50.390;8.616;2023-02-27T07:18:54;-1.50;49.60
37678;DHT22;23517;50.390;8.616;2023-02-27T07:21:21;-1.50;49.10
37678;DHT22;23517;50.390;8.616;2023-02-27T07:23:48;-1.50;48.70
37678;DHT22;23517;50.390;8.616;2023-02-27T07:26:14;-1.40;48.60
37678;DHT22;23517;50.390;8.616;2023-02-27T07:28:41;-1.30;48.40
37678;DHT22;23517;50.390;8.616;2023-02-27T07:31:07;-1.30;48.40
37678;DHT22;23517;50.390;8.616;2023-02-27T07:33:35;-1.20;47.90
37678;DHT22;23517;50.390;8.616;2023-02-27T07:36:02;-1.10;48.00
37678;DHT22;23517;50.390;8.616;2023-02-27T07:38:29;-1.10;47.60
37678;DHT22;23517;50.390;8.616;2023-02-27T07:40:57;-1.00;47.40
37678;DHT22;23517;50.390;8.616;2023-02-27T07:43:25;-1.00;47.20
37678;DHT22;23517;50.390;8.616;2023-02-27T07:45:52;-0.90;46.90
37678;DHT22;23517;50.390;8.616;2023-02-27T07:48:18;-0.80;46.50
37678;DHT22;23517;50.390;8.616;2023-02-27T07:50:45;-0.70;45.90
37678;DHT22;23517;50.390;8.616;2023-02-27T07:53:12;-0.70;45.70
37678;DHT22;23517;50.390;8.616;2023-02-27T07:55:38;-0.60;45.70
37678;DHT22;23517;50.390;8.616;2023-02-27T07:58:05;-0.50;45.40
37678;DHT22;23517;50.390;8.616;2023-02-27T08:00:32;-0.40;45.10
37678;DHT22;23517;50.390;8.616;2023-02-27T08:02:58;-0.40;44.40
37678;DHT22;23517;50.390;8.616;2023-02-27T08:05:25;-0.20;43.50
37678;DHT22;23517;50.390;8.616;2023-02-27T08:07:52;0.00;43.30
37678;DHT22;23517;50.390;8.616;2023-02-27T08:10:19;0.20;42.40
37678;DHT22;23517;50.390;8.616;2023-02-27T08:12:46;0.40;41.00
37678;DHT22;23517;50.390;8.616;2023-02-27T08:15:12;0.60;39.80
37678;DHT22;23517;50.390;8.616;2023-02-27T08:17:39;0.90;39.70
37678;DHT22;23517;50.390;8.616;2023-02-27T08:20:07;0.90;38.50
37678;DHT22;23517;50.390;8.616;2023-02-27T08:22:36;0.90;38.70
37678;DHT22;23517;50.390;8.616;2023-02-27T08:25:05;1.10;38.10
37678;DHT22;23517;50.390;8.616;2023-02-27T08:27:33;1.20;37.90
37678;DHT22;23517;50.390;8.616;2023-02-27T08:30:00;1.30;37.20
37678;DHT22;23517;50.390;8.616;2023-02-27T08:32:27;1.30;36.80
37678;DHT22;23517;50.390;8.616;2023-02-27T08:34:54;1.30;36.50
37678;DHT22;23517;50.390;8.616;2023-02-27T08:37:20;1.20;36.80
37678;DHT22;23517;50.390;8.616;2023-02-27T08:39:47;1.30;37.10
37678;DHT22;23517;50.390;8.616;2023-02-27T08:42:14;1.40;36.70
37678;DHT22;23517;50.390;8.616;2023-02-27T08:44:41;1.50;37.00
37678;DHT22;23517;50.390;8.616;2023-02-27T08:47:12;1.50;35.80
37678;DHT22;23517;50.390;8.616;2023-02-27T08:49:39;1.40;36.80
37678;DHT22;23517;50.390;8.616;2023-02-27T08:52:05;1.50;36.70
37678;DHT22;23517;50.390;8.616;2023-02-27T08:54:35;1.60;35.60
37678;DHT22;23517;50.390;8.616;2023-02-27T08:57:03;1.30;36.30
37678;DHT22;23517;50.390;8.616;2023-02-27T08:59:30;1.30;36.90
37678;DHT22;23517;50.390;8.616;2023-02-27T09:01:57;1.30;36.70
37678;DHT22;23517;50.390;8.616;2023-02-27T09:04:25;1.30;37.20
37678;DHT22;23517;50.390;8.616;2023-02-27T09:06:52;1.10;37.10
37678;DHT22;23517;50.390;8.616;2023-02-27T09:09:19;1.20;36.90
37678;DHT22;23517;50.390;8.616;2023-02-27T09:11:52;1.30;36.60
37678;DHT22;23517;50.390;8.616;2023-02-27T09:14:19;1.30;35.80
37678;DHT22;23517;50.390;8.616;2023-02-27T09:16:46;1.40;35.80
37678;DHT22;23517;50.390;8.616;2023-02-27T09:19:12;1.50;36.10
37678;DHT22;23517;50.390;8.616;2023-02-27T09:21:40;1.40;35.50
37678;DHT22;23517;50.390;8.616;2023-02-27T09:24:07;1.40;35.50
37678;DHT22;23517;50.390;8.616;2023-02-27T09:26:46;1.50;35.40
37678;DHT22;23517;50.390;8.616;2023-02-27T09:29:14;1.70;35.60
37678;DHT22;23517;50.390;8.616;2023-02-27T09:31:41;1.70;35.30
37678;DHT22;23517;50.390;8.616;2023-02-27T09:34:16;1.80;35.10
37678;DHT22;23517;50.390;8.616;2023-02-27T09:36:42;1.90;34.90
37678;DHT22;23517;50.390;8.616;2023-02-27T09:39:09;1.90;34.40
37678;DHT22;23517;50.390;8.616;2023-02-27T09:41:50;2.00;34.10
37678;DHT22;23517;50.390;8.616;2023-02-27T09:44:34;2.00;34.00
37678;DHT22;23517;50.390;8.616;2023-02-27T09:47:17;2.00;34.20
37678;DHT22;23517;50.390;8.616;2023-02-27T09:50:04;2.00;33.80
37678;DHT22;23517;50.390;8.616;2023-02-27T09:52:35;1.90;34.10
37678;DHT22;23517;50.390;8.616;2023-02-27T09:55:12;2.00;34.30
37678;DHT22;23517;50.390;8.616;2023-02-27T10:04:52;1.90;33.60
37678;DHT22;23517;50.390;8.616;2023-02-27T10:07:39;1.70;34.00
37678;DHT22;23517;50.390;8.616;2023-02-27T10:13:25;1.40;34.30
37678;DHT22;23517;50.390;8.616;2023-02-27T10:16:09;1.40;35.20
37678;DHT22;23517;50.390;8.616;2023-02-27T10:18:50;1.50;35.80
37678;DHT22;23517;50.390;8.616;2023-02-27T10:21:33;1.60;35.90
37678;DHT22;23517;50.390;8.616;2023-02-27T10:24:23;1.90;35.50
37678;DHT22;23517;50.390;8.616;2023-02-27T10:26:56;2.00;34.80
37678;DHT22;23517;50.390;8.616;2023-02-27T10:29:36;2.30;34.00
37678;DHT22;23517;50.390;8.616;2023-02-27T10:32:20;2.40;33.90
37678;DHT22;23517;50.390;8.616;2023-02-27T10:34:57;2.60;32.90
37678;DHT22;23517;50.390;8.616;2023-02-27T10:37:38;2.80;32.50
37678;DHT22;23517;50.390;8.616;2023-02-27T10:40:14;3.00;32.50
37678;DHT22;23517;50.390;8.616;2023-02-27T10:42:42;3.10;31.30
37678;DHT22;23517;50.390;8.616;2023-02-27T10:45:13;3.20;31.40
37678;DHT22;23517;50.390;8.616;2023-02-27T10:47:41;3.50;30.60
37678;DHT22;23517;50.390;8.616;2023-02-27T10:50:27;3.50;31.00
37678;DHT22;23517;50.390;8.616;2023-02-27T10:53:01;3.50;30.30
37678;DHT22;23517;50.390;8.616;2023-02-27T10:55:32;3.50;30.50
37678;DHT22;23517;50.390;8.616;2023-02-27T10:58:02;3.50;30.70
37678;DHT22;23517;50.390;8.616;2023-02-27T11:03:05;3.40;30.10
37678;DHT22;23517;50.390;8.616;2023-02-27T11:05:35;3.40;30.30
37678;DHT22;23517;50.390;8.616;2023-02-27T11:08:12;3.50;29.50
37678;DHT22;23517;50.390;8.616;2023-02-27T11:10:54;3.70;28.50
37678;DHT22;23517;50.390;8.616;2023-02-27T11:13:29;3.90;28.80
37678;DHT22;23517;50.390;8.616;2023-02-27T11:18:42;3.60;28.70
37678;DHT22;23517;50.390;8.616;2023-02-27T11:21:39;3.80;28.80
37678;DHT22;23517;50.390;8.616;2023-02-27T11:24:18;3.90;28.90
37678;DHT22;23517;50.390;8.616;2023-02-27T11:26:56;3.90;27.20
37678;DHT22;23517;50.390;8.616;2023-02-27T11:29:24;3.80;27.40
37678;DHT22;23517;50.390;8.616;2023-02-27T11:32:11;3.70;28.00
37678;DHT22;23517;50.390;8.616;2023-02-27T11:34:47;3.50;28.20
37678;DHT22;23517;50.390;8.616;2023-02-27T11:37:35;3.50;28.00
37678;DHT22;23517;50.390;8.616;2023-02-27T11:42:40;3.40;27.70
37678;DHT22;23517;50.390;8.616;2023-02-27T11:48:20;3.60;28.00
37678;DHT22;23517;50.390;8.616;2023-02-27T11:54:01;3.90;27.40
37678;DHT22;23517;50.390;8.616;2023-02-27T11:56:46;3.90;26.60
37678;DHT22;23517;50.390;8.616;2023-02-27T12:03:03;3.80;25.80
37678;DHT22;23517;50.390;8.616;2023-02-27T12:05:41;3.90;25.70
37678;DHT22;23517;50.390;8.616;2023-02-27T12:08:17;4.20;26.10
37678;DHT22;23517;50.390;8.616;2023-02-27T12:11:05;4.20;25.30
37678;DHT22;23517;50.390;8.616;2023-02-27T12:13:46;4.20;25.40
37678;DHT22;23517;50.390;8.616;2023-02-27T12:16:28;4.00;24.40
37678;DHT22;23517;50.390;8.616;2023-02-27T12:19:28;3.80;24.60
37678;DHT22;23517;50.390;8.616;2023-02-27T12:22:08;3.60;24.60
37678;DHT22;23517;50.390;8.616;2023-02-27T12:24:52;3.50;24.40
37678;DHT22;23517;50.390;8.616;2023-02-27T12:30:35;3.60;23.10
37678;DHT22;23517;50.390;8.616;2023-02-27T12:36:10;4.10;24.40
37678;DHT22;23517;50.390;8.616;2023-02-27T12:38:39;4.30;23.60
37678;DHT22;23517;50.390;8.616;2023-02-27T12:47:34;4.80;22.90
37678;DHT22;23517;50.390;8.616;2023-02-27T12:50:11;5.10;24.10
37678;DHT22;23517;50.390;8.616;2023-02-27T12:55:25;5.30;22.90
37678;DHT22;23517;50.390;8.616;2023-02-27T13:01:08;4.70;22.00
37678;DHT22;23517;50.390;8.616;2023-02-27T13:03:51;4.30;22.60
37678;DHT22;23517;50.390;8.616;2023-02-27T13:12:26;3.90;21.60
37678;DHT22;23517;50.390;8.616;2023-02-27T13:15:13;4.20;20.80
37678;DHT22;23517;50.390;8.616;2023-02-27T13:17:48;4.40;21.20
37678;DHT22;23517;50.390;8.616;2023-02-27T13:22:57;4.70;20.20
37678;DHT22;23517;50.390;8.616;2023-02-27T13:25:47;4.80;20.40
37678;DHT22;23517;50.390;8.616;2023-02-27T13:28:24;5.00;21.90
37678;DHT22;23517;50.390;8.616;2023-02-27T13:31:18;5.10;21.50
37678;DHT22;23517;50.390;8.616;2023-02-27T13:33:58;5.00;19.80
37678;DHT22;23517;50.390;8.616;2023-02-27T13:36:43;5.00;20.60
37678;DHT22;23517;50.390;8.616;2023-02-27T13:44:56;4.40;20.90
37678;DHT22;23517;50.390;8.616;2023-02-27T13:50:01;4.00;22.50
37678;DHT22;23517;50.390;8.616;2023-02-27T13:52:36;3.90;22.20
37678;DHT22;23517;50.390;8.616;2023-02-27T13:57:56;4.00;21.90
37678;DHT22;23517;50.390;8.616;2023-02-27T14:00:28;4.00;21.80
37678;DHT22;23517;50.390;8.616;2023-02-27T14:02:58;4.10;22.10
37678;DHT22;23517;50.390;8.616;2023-02-27T14:05:37;4.00;21.80
37678;DHT22;23517;50.390;8.616;2023-02-27T14:16:20;4.00;21.70
37678;DHT22;23517;50.390;8.616;2023-02-27T14:24:38;4.00;22.30
37678;DHT22;23517;50.390;8.616;2023-02-27T14:27:28;4.00;21.70
37678;DHT22;23517;50.390;8.616;2023-02-27T14:29:59;4.00;22.10
37678;DHT22;23517;50.390;8.616;2023-02-27T14:32:34;4.10;21.80
37678;DHT22;23517;50.390;8.616;2023-02-27T14:35:04;4.10;22.20
37678;DHT22;23517;50.390;8.616;2023-02-27T14:37:31;4.00;21.20
37678;DHT22;23517;50.390;8.616;2023-02-27T14:40:00;4.10;21.80
37678;DHT22;23517;50.390;8.616;2023-02-27T14:42:57;4.00;21.20
37678;DHT22;23517;50.390;8.616;2023-02-27T14:45:47;3.90;21.70
37678;DHT22;23517;50.390;8.616;2023-02-27T14:48:21;3.80;22.10
37678;DHT22;23517;50.390;8.616;2023-02-27T14:50:53;3.80;22.90
37678;DHT22;23517;50.390;8.616;2023-02-27T14:53:25;3.80;22.90
37678;DHT22;23517;50.390;8.616;2023-02-27T14:55:57;3.80;23.90
37678;DHT22;23517;50.390;8.616;2023-02-27T14:58:25;3.90;23.70
37678;DHT22;23517;50.390;8.616;2023-02-27T15:00:59;3.90;23.60
37678;DHT22;23517;50.390;8.616;2023-02-27T15:03:46;3.90;22.80
37678;DHT22;23517;50.390;8.616;2023-02-27T15:06:20;3.90;23.00
37678;DHT22;23517;50.390;8.616;2023-02-27T15:08:52;3.90;22.60
37678;DHT22;23517;50.390;8.616;2023-02-27T15:11:21;3.90;22.50
37678;DHT22;23517;50.390;8.616;2023-02-27T15:14:00;3.80;23.70
37678;DHT22;23517;50.390;8.616;2023-02-27T15:16:39;3.80;24.30
37678;DHT22;23517;50.390;8.616;2023-02-27T15:19:20;3.70;24.50
37678;DHT22;23517;50.390;8.616;2023-02-27T15:21:54;3.70;23.80
37678;DHT22;23517;50.390;8.616;2023-02-27T15:24:33;3.60;23.80
37678;DHT22;23517;50.390;8.616;2023-02-27T15:27:18;3.60;24.30
37678;DHT22;23517;50.390;8.616;2023-02-27T15:32:38;3.50;24.20
37678;DHT22;23517;50.390;8.616;2023-02-27T15:35:23;3.40;24.40
37678;DHT22;23517;50.390;8.616;2023-02-27T15:37:55;3.50;24.40
37678;DHT22;23517;50.390;8.616;2023-02-27T15:40:27;3.50;24.60
37678;DHT22;23517;50.390;8.616;2023-02-27T15:42:57;3.40;25.10
37678;DHT22;23517;50.390;8.616;2023-02-27T15:45:27;3.40;24.00
37678;DHT22;23517;50.390;8.616;2023-02-27T15:47:56;3.40;24.20
37678;DHT22;23517;50.390;8.616;2023-02-27T15:53:11;3.40;24.70
37678;DHT22;23517;50.390;8.616;2023-02-27T15:55:42;3.40;25.20
37678;DHT22;23517;50.390;8.616;2023-02-27T15:58:29;3.30;25.30
37678;DHT22;23517;50.390;8.616;2023-02-27T16:01:21;3.40;24.80
37678;DHT22;23517;50.390;8.616;2023-02-27T16:03:51;3.30;25.40
37678;DHT22;23517;50.390;8.616;2023-02-27T16:06:28;3.20;25.00
37678;DHT22;23517;50.390;8.616;2023-02-27T16:09:18;3.20;25.50
37678;DHT22;23517;50.390;8.616;2023-02-27T16:11:47;3.20;25.70
37678;DHT22;23517;50.390;8.616;2023-02-27T16:14:38;3.10;25.10
37678;DHT22;23517;50.390;8.616;2023-02-27T16:17:31;3.00;26.00
37678;DHT22;23517;50.390;8.616;2023-02-27T16:20:00;2.90;26.10
37678;DHT22;23517;50.390;8.616;2023-02-27T16:22:28;3.00;26.10
37678;DHT22;23517;50.390;8.616;2023-02-27T16:25:07;2.90;26.60
37678;DHT22;23517;50.390;8.616;2023-02-27T16:27:36;2.90;27.10
37678;DHT22;23517;50.390;8.616;2023-02-27T16:30:09;2.80;27.10
37678;DHT22;23517;50.390;8.616;2023-02-27T16:32:40;2.80;26.70
37678;DHT22;23517;50.390;8.616;2023-02-27T16:35:21;2.80;26.50
37678;DHT22;23517;50.390;8.616;2023-02-27T16:37:49;2.80;26.50
37678;DHT22;23517;50.390;8.616;2023-02-27T16:40:20;2.80;26.80
37678;DHT22;23517;50.390;8.616;2023-02-27T16:42:50;2.80;26.90
37678;DHT22;23517;50.390;8.616;2023-02-27T16:45:19;2.70;27.30
37678;DHT22;23517;50.390;8.616;2023-02-27T16:47:49;2.70;27.90
37678;DHT22;23517;50.390;8.616;2023-02-27T16:50:27;2.70;28.70
37678;DHT22;23517;50.390;8.616;2023-02-27T16:52:56;2.60;29.00
37678;DHT22;23517;50.390;8.616;2023-02-27T16:55:24;2.60;29.20
37678;DHT22;23517;50.390;8.616;2023-02-27T16:57:51;2.50;29.40
37678;DHT22;23517;50.390;8.616;2023-02-27T17:00:19;2.60;29.50
37678;DHT22;23517;50.390;8.616;2023-02-27T17:02:49;2.60;29.50
37678;DHT22;23517;50.390;8.616;2023-02-27T17:05:17;2.50;29.70
37678;DHT22;23517;50.390;8.616;2023-02-27T17:07:44;2.50;30.00
37678;DHT22;23517;50.390;8.616;2023-02-27T17:10:16;2.50;30.40
37678;DHT22;23517;50.390;8.616;2023-02-27T17:12:45;2.40;31.20
37678;DHT22;23517;50.390;8.616;2023-02-27T17:15:15;2.40;31.40
37678;DHT22;23517;50.390;8.616;2023-02-27T17:17:42;2.40;31.60
37678;DHT22;23517;50.390;8.616;2023-02-27T17:20:11;2.40;31.90
37678;DHT22;23517;50.390;8.616;2023-02-27T17:22:41;2.30;32.00
37678;DHT22;23517;50.390;8.616;2023-02-27T17:25:13;2.30;32.30
37678;DHT22;23517;50.390;8.616;2023-02-27T17:27:43;2.20;32.00
37678;DHT22;23517;50.390;8.616;2023-02-27T17:30:10;2.30;32.30
37678;DHT22;23517;50.390;8.616;2023-02-27T17:32:38;2.20;32.10
37678;DHT22;23517;50.390;8.616;2023-02-27T17:35:05;2.20;32.20
37678;DHT22;23517;50.390;8.616;2023-02-27T17:37:32;2.20;32.50
37678;DHT22;23517;50.390;8.616;2023-02-27T17:39:58;2.20;32.60
37678;DHT22;23517;50.390;8.616;2023-02-27T17:42:34;2.20;32.60
37678;DHT22;23517;50.390;8.616;2023-02-27T17:45:02;2.20;32.80
37678;DHT22;23517;50.390;8.616;2023-02-27T17:47:31;2.20;33.10
37678;DHT22;23517;50.390;8.616;2023-02-27T17:49:58;2.20;32.80
37678;DHT22;23517;50.390;8.616;2023-02-27T17:52:26;2.10;33.20
37678;DHT22;23517;50.390;8.616;2023-02-27T17:54:55;2.10;33.20
37678;DHT22;23517;50.390;8.616;2023-02-27T17:57:22;2.20;33.30
37678;DHT22;23517;50.390;8.616;2023-02-27T17:59:48;2.20;33.00
37678;DHT22;23517;50.390;8.616;2023-02-27T18:02:15;2.20;33.00
37678;DHT22;23517;50.390;8.616;2023-02-27T18:04:42;2.20;33.00
37678;DHT22;23517;50.390;8.616;2023-02-27T18:07:09;2.20;33.20
37678;DHT22;23517;50.390;8.616;2023-02-27T18:09:35;2.20;33.00
37678;DHT22;23517;50.390;8.616;2023-02-27T18:12:05;2.20;32.80
37678;DHT22;23517;50.390;8.616;2023-02-27T18:14:37;2.20;33.20
37678;DHT22;23517;50.390;8.616;2023-02-27T18:17:03;2.20;33.30